createdAt,value
2019-02-19T00:00:46.214Z,9.21
2019-02-19T00:01:46.227Z,9.12
2019-02-19T00:02:46.195Z,9.25
2019-02-19T00:03:46.197Z,9.45
2019-02-19T00:04:46.208Z,9.50
2019-02-19T00:05:46.162Z,9.53
2019-02-19T00:06:46.184Z,9.48
2019-02-19T00:07:46.172Z,9.24
2019-02-19T00:08:46.124Z,9.30
2019-02-19T00:09:46.116Z,9.27
2019-02-19T00:10:46.142Z,9.30
2019-02-19T00:11:46.113Z,9.30
2019-02-19T00:12:46.083Z,9.27
2019-02-19T00:13:46.078Z,9.35
2019-02-19T00:14:46.068Z,9.27
2019-02-19T00:15:46.111Z,9.25
2019-02-19T00:16:46.062Z,9.30
2019-02-19T00:17:46.035Z,9.23
2019-02-19T00:18:46.018Z,9.23
2019-02-19T00:19:46.003Z,9.05
2019-02-19T00:20:45.992Z,9.09
2019-02-19T00:21:46.072Z,9.15
2019-02-19T00:22:45.974Z,9.13
2019-02-19T00:23:45.957Z,9.24
2019-02-19T00:24:45.949Z,9.16
2019-02-19T00:25:45.934Z,9.21
2019-02-19T00:26:45.949Z,9.15
2019-02-19T00:27:46.000Z,9.15
2019-02-19T00:28:45.901Z,9.06
2019-02-19T00:29:45.894Z,9.06
2019-02-19T00:30:45.886Z,9.15
2019-02-19T00:31:45.888Z,9.25
2019-02-19T00:32:45.855Z,9.43
2019-02-19T00:33:45.868Z,9.52
2019-02-19T00:34:45.833Z,9.64
2019-02-19T00:35:45.874Z,9.66
2019-02-19T00:36:45.838Z,9.61
2019-02-19T00:37:45.797Z,9.57
2019-02-19T00:38:45.789Z,9.35
2019-02-19T00:39:45.848Z,9.27
2019-02-19T00:40:45.769Z,9.23
2019-02-19T00:41:45.780Z,9.42
2019-02-19T00:42:45.742Z,9.39
2019-02-19T00:43:45.733Z,9.27
2019-02-19T00:44:45.724Z,9.40
2019-02-19T00:45:45.736Z,9.32
2019-02-19T00:46:45.701Z,9.24
2019-02-19T00:47:45.714Z,9.42
2019-02-19T00:48:45.676Z,9.49
2019-02-19T00:49:45.664Z,9.61
2019-02-19T00:50:45.653Z,9.49
2019-02-19T00:51:45.675Z,9.61
2019-02-19T00:52:45.668Z,9.48
2019-02-19T00:53:45.617Z,9.40
2019-02-19T00:54:45.606Z,9.27
2019-02-19T00:55:45.594Z,9.27
2019-02-19T00:56:45.586Z,9.42
2019-02-19T00:57:45.640Z,9.27
2019-02-19T00:58:45.569Z,9.45
2019-02-19T00:59:45.571Z,9.32
2019-02-19T01:00:45.540Z,9.39
2019-02-19T01:01:45.534Z,9.39
2019-02-19T01:02:45.545Z,9.49
2019-02-19T01:03:45.535Z,9.58
2019-02-19T01:04:45.497Z,9.78
2019-02-19T01:05:45.481Z,9.66
2019-02-19T01:06:45.477Z,9.56
2019-02-19T01:07:45.501Z,9.39
2019-02-19T01:08:45.448Z,9.49
2019-02-19T01:09:45.501Z,9.67
2019-02-19T01:10:45.430Z,9.79
2019-02-19T01:11:45.414Z,9.73
2019-02-19T01:12:45.427Z,9.66
2019-02-19T01:13:45.394Z,9.96
2019-02-19T01:14:45.384Z,9.86
2019-02-19T01:15:45.399Z,9.83
2019-02-19T01:16:45.360Z,9.63
2019-02-19T01:17:45.372Z,9.45
2019-02-19T01:18:45.336Z,9.48
2019-02-19T01:19:45.325Z,9.49
2019-02-19T01:20:45.320Z,9.48
2019-02-19T01:21:45.340Z,9.45
2019-02-19T01:22:45.331Z,9.46
2019-02-19T01:23:45.291Z,9.46
2019-02-19T01:24:45.277Z,9.45
2019-02-19T01:25:45.257Z,9.25
2019-02-19T01:26:45.245Z,9.24
2019-02-19T01:27:45.268Z,9.09
2019-02-19T01:28:45.266Z,8.96
2019-02-19T01:29:45.217Z,8.81
2019-02-19T01:30:45.205Z,8.75
2019-02-19T01:31:45.192Z,8.69
2019-02-19T01:32:45.203Z,8.66
2019-02-19T01:33:45.174Z,8.78
2019-02-19T01:34:45.232Z,8.68
2019-02-19T01:35:45.149Z,8.79
2019-02-19T01:36:45.136Z,8.88
2019-02-19T01:37:45.220Z,9.15
2019-02-19T01:38:45.111Z,9.10
2019-02-19T01:39:45.099Z,9.20
2019-02-19T01:40:45.132Z,9.28
2019-02-19T01:41:45.075Z,9.28
2019-02-19T01:42:45.086Z,9.04
2019-02-19T01:43:45.087Z,9.20
2019-02-19T01:44:45.055Z,9.05
2019-02-19T01:45:45.032Z,9.02
2019-02-19T01:46:45.031Z,8.71
2019-02-19T01:47:45.035Z,8.62
2019-02-19T01:48:45.079Z,8.76
2019-02-19T01:49:44.987Z,8.86
2019-02-19T01:50:44.976Z,8.78
2019-02-19T01:51:44.970Z,8.81
2019-02-19T01:52:44.954Z,8.71
2019-02-19T01:53:44.965Z,8.76
2019-02-19T01:54:45.000Z,8.88
2019-02-19T01:55:44.929Z,9.01
2019-02-19T01:56:44.909Z,8.94
2019-02-19T01:57:44.901Z,8.73
2019-02-19T01:58:44.906Z,8.71
2019-02-19T01:59:44.878Z,8.58
2019-02-19T02:00:44.927Z,8.75
2019-02-19T02:01:44.853Z,8.69
2019-02-19T02:02:44.849Z,8.81
2019-02-19T02:03:44.857Z,8.65
2019-02-19T02:04:44.820Z,8.66
2019-02-19T02:05:44.804Z,8.68
2019-02-19T02:06:44.854Z,8.65
2019-02-19T02:07:44.784Z,8.57
2019-02-19T02:08:44.797Z,8.60
2019-02-19T02:09:44.763Z,8.51
2019-02-19T02:10:44.753Z,8.48
2019-02-19T02:11:44.743Z,8.50
2019-02-19T02:12:44.759Z,8.69
2019-02-19T02:13:44.741Z,8.75
2019-02-19T02:14:44.707Z,8.84
2019-02-19T02:15:44.693Z,8.91
2019-02-19T02:16:44.684Z,8.94
2019-02-19T02:17:44.693Z,8.88
2019-02-19T02:18:44.714Z,9.01
2019-02-19T02:19:44.648Z,9.04
2019-02-19T02:20:44.638Z,8.91
2019-02-19T02:21:44.636Z,8.68
2019-02-19T02:22:44.618Z,8.53
2019-02-19T02:23:44.629Z,8.42
2019-02-19T02:24:44.657Z,8.42
2019-02-19T02:25:44.583Z,8.42
2019-02-19T02:26:44.571Z,8.42
2019-02-19T02:27:44.564Z,8.40
2019-02-19T02:28:44.571Z,8.29
2019-02-19T02:29:44.538Z,8.17
2019-02-19T02:30:44.542Z,8.32
2019-02-19T02:31:44.527Z,8.35
2019-02-19T02:32:44.502Z,8.32
2019-02-19T02:33:44.515Z,8.25
2019-02-19T02:34:44.497Z,8.28
2019-02-19T02:35:44.481Z,8.18
2019-02-19T02:36:44.531Z,8.40
2019-02-19T02:37:44.458Z,8.58
2019-02-19T02:38:44.460Z,8.79
2019-02-19T02:39:44.426Z,8.71
2019-02-19T02:40:44.413Z,8.71
2019-02-19T02:41:44.404Z,8.66
2019-02-19T02:42:44.463Z,8.62
2019-02-19T02:43:44.380Z,8.48
2019-02-19T02:44:44.394Z,8.44
2019-02-19T02:45:53.052Z,8.44
2019-02-19T02:46:45.349Z,8.40
2019-02-19T02:47:44.335Z,8.50
2019-02-19T02:48:44.379Z,8.40
2019-02-19T02:49:44.341Z,8.42
2019-02-19T02:50:44.306Z,8.30
2019-02-19T02:51:44.299Z,8.35
2019-02-19T02:52:44.282Z,8.17
2019-02-19T02:53:44.272Z,8.26
2019-02-19T02:54:44.282Z,8.20
2019-02-19T02:55:44.270Z,8.20
2019-02-19T02:56:44.240Z,8.25
2019-02-19T02:57:44.229Z,8.18
2019-02-19T02:58:44.219Z,8.18
2019-02-19T02:59:44.225Z,8.18
2019-02-19T03:00:44.192Z,8.18
2019-02-19T03:01:44.212Z,8.26
2019-02-19T03:02:44.167Z,8.32
2019-02-19T03:03:44.169Z,8.28
2019-02-19T03:04:44.173Z,8.35
2019-02-19T03:05:44.132Z,8.50
2019-02-19T03:06:44.156Z,8.44
2019-02-19T03:07:44.111Z,8.47
2019-02-19T03:08:44.103Z,8.39
2019-02-19T03:09:44.118Z,8.40
2019-02-19T03:10:44.078Z,8.60
2019-02-19T03:11:44.066Z,8.75
2019-02-19T03:12:44.085Z,8.73
2019-02-19T03:13:44.043Z,8.91
2019-02-19T03:14:44.064Z,8.94
2019-02-19T03:15:44.025Z,9.04
2019-02-19T03:16:44.014Z,8.88
2019-02-19T03:17:43.999Z,8.79
2019-02-19T03:18:44.033Z,8.68
2019-02-19T03:19:44.006Z,8.66
2019-02-19T03:20:43.965Z,8.51
2019-02-19T03:21:43.955Z,8.47
2019-02-19T03:22:43.942Z,8.44
2019-02-19T03:23:43.931Z,8.37
2019-02-19T03:24:44.001Z,8.33
2019-02-19T03:25:43.908Z,8.29
2019-02-19T03:26:43.897Z,8.29
2019-02-19T03:27:43.886Z,8.29
2019-02-19T03:28:43.875Z,8.17
2019-02-19T03:29:43.888Z,8.18
2019-02-19T03:30:43.914Z,8.12
2019-02-19T03:31:43.846Z,8.15
2019-02-19T03:32:43.830Z,8.32
2019-02-19T03:33:43.823Z,8.30
2019-02-19T03:34:43.843Z,8.47
2019-02-19T03:35:43.794Z,8.44
2019-02-19T03:36:43.790Z,8.35
2019-02-19T03:37:43.839Z,8.54
2019-02-19T03:38:43.795Z,8.48
2019-02-19T03:39:43.752Z,8.45
2019-02-19T03:40:43.765Z,8.51
2019-02-19T03:41:43.750Z,8.60
2019-02-19T03:42:43.726Z,8.60
2019-02-19T03:43:43.746Z,8.65
2019-02-19T03:44:43.693Z,8.69
2019-02-19T03:45:43.707Z,8.73
2019-02-19T03:46:43.677Z,8.65
2019-02-19T03:47:43.666Z,8.72
2019-02-19T03:48:43.656Z,8.76
2019-02-19T03:49:43.692Z,8.73
2019-02-19T03:50:43.657Z,8.68
2019-02-19T03:51:43.616Z,8.79
2019-02-19T03:52:43.605Z,8.88
2019-02-19T03:53:43.599Z,8.81
2019-02-19T03:54:43.581Z,8.75
2019-02-19T03:55:43.593Z,8.76
2019-02-19T03:56:43.611Z,8.83
2019-02-19T03:57:43.554Z,8.78
2019-02-19T03:58:43.542Z,8.62
2019-02-19T03:59:50.578Z,8.69
2019-02-19T04:00:50.570Z,8.60
2019-02-19T04:01:50.539Z,8.63
2019-02-19T04:02:43.520Z,8.55
2019-02-19T04:03:50.548Z,8.57
2019-02-19T04:04:43.525Z,8.50
2019-02-19T04:05:50.531Z,8.60
2019-02-19T04:06:43.475Z,8.51
2019-02-19T04:07:43.438Z,8.60
2019-02-19T04:08:43.433Z,8.54
2019-02-19T04:09:43.463Z,8.62
2019-02-19T04:10:43.422Z,8.68
2019-02-19T04:11:43.399Z,8.60
2019-02-19T04:12:43.416Z,8.68
2019-02-19T04:13:43.371Z,8.71
2019-02-19T04:14:43.362Z,8.65
2019-02-19T04:15:43.403Z,8.66
2019-02-19T04:16:43.337Z,8.68
2019-02-19T04:17:43.337Z,8.58
2019-02-19T04:18:43.321Z,8.55
2019-02-19T04:19:43.305Z,8.48
2019-02-19T04:20:43.340Z,8.48
2019-02-19T04:21:43.279Z,8.44
2019-02-19T04:22:43.268Z,8.48
2019-02-19T04:23:43.259Z,8.37
2019-02-19T04:24:43.259Z,8.42
2019-02-19T04:25:43.265Z,8.35
2019-02-19T04:26:43.305Z,8.33
2019-02-19T04:27:43.215Z,8.28
2019-02-19T04:28:43.198Z,8.33
2019-02-19T04:29:43.192Z,8.28
2019-02-19T04:30:43.205Z,8.35
2019-02-19T04:31:43.167Z,8.33
2019-02-19T04:32:43.201Z,8.40
2019-02-19T04:33:43.142Z,8.35
2019-02-19T04:34:43.158Z,8.36
2019-02-19T04:35:43.128Z,8.39
2019-02-19T04:36:43.136Z,8.35
2019-02-19T04:37:43.100Z,8.18
2019-02-19T04:38:43.117Z,8.17
2019-02-19T04:39:43.080Z,8.25
2019-02-19T04:40:43.067Z,8.14
2019-02-19T04:41:43.083Z,8.25
2019-02-19T04:42:43.047Z,8.17
2019-02-19T04:43:43.036Z,8.20
2019-02-19T04:44:43.027Z,8.29
2019-02-19T04:45:43.046Z,8.39
2019-02-19T04:46:43.021Z,8.50
2019-02-19T04:47:42.993Z,8.44
2019-02-19T04:48:42.976Z,8.32
2019-02-19T04:49:42.966Z,8.28
2019-02-19T04:50:42.956Z,8.17
2019-02-19T04:51:43.032Z,8.18
2019-02-19T04:52:42.941Z,8.18
2019-02-19T04:53:42.921Z,8.22
2019-02-19T04:54:42.915Z,8.17
2019-02-19T04:55:42.902Z,8.20
2019-02-19T04:56:42.913Z,8.15
2019-02-19T04:57:42.918Z,8.21
2019-02-19T04:58:42.873Z,8.12
2019-02-19T04:59:42.854Z,8.15
2019-02-19T05:00:42.840Z,8.17
2019-02-19T05:01:42.862Z,8.21
2019-02-19T05:02:42.822Z,8.30
2019-02-19T05:03:42.837Z,8.28
2019-02-19T05:04:42.800Z,8.17
2019-02-19T05:05:42.793Z,8.17
2019-02-19T05:06:42.804Z,8.04
2019-02-19T05:07:42.769Z,8.02
2019-02-19T05:08:44.557Z,8.04
2019-02-19T05:09:42.768Z,8.26
2019-02-19T05:10:42.734Z,8.30
2019-02-19T05:11:42.744Z,8.14
2019-02-19T05:12:42.706Z,8.14
2019-02-19T05:13:42.694Z,8.14
2019-02-19T05:14:42.693Z,8.15
2019-02-19T05:15:42.701Z,8.15
2019-02-19T05:16:42.690Z,8.21
2019-02-19T05:17:42.652Z,8.17
2019-02-19T05:18:42.645Z,8.28
2019-02-19T05:19:42.634Z,8.25
2019-02-19T05:20:42.619Z,8.28
2019-02-19T05:21:42.658Z,8.37
2019-02-19T05:22:42.596Z,8.29
2019-02-19T05:23:42.583Z,7.99
2019-02-19T05:24:42.571Z,7.93
2019-02-19T05:25:42.560Z,7.94
2019-02-19T05:26:42.577Z,7.79
2019-02-19T05:27:42.592Z,7.59
2019-02-19T05:28:42.527Z,7.66
2019-02-19T05:29:42.518Z,7.59
2019-02-19T05:30:43.126Z,7.87
2019-02-19T05:31:42.495Z,7.85
2019-02-19T05:32:42.507Z,7.87
2019-02-19T05:33:42.577Z,7.71
2019-02-19T05:34:42.460Z,7.62
2019-02-19T05:35:42.455Z,7.81
2019-02-19T05:36:42.439Z,7.92
2019-02-19T05:37:42.452Z,8.12
2019-02-19T05:38:42.451Z,8.17
2019-02-19T05:39:42.405Z,8.22
2019-02-19T05:40:42.401Z,8.20
2019-02-19T05:41:42.430Z,8.17
2019-02-19T05:42:42.401Z,7.90
2019-02-19T05:43:42.364Z,7.78
2019-02-19T05:44:42.426Z,7.71
2019-02-19T05:45:42.335Z,7.56
2019-02-19T05:46:49.691Z,7.78
2019-02-19T05:47:43.348Z,7.82
2019-02-19T05:48:42.301Z,7.79
2019-02-19T05:49:42.316Z,7.78
2019-02-19T05:50:42.278Z,7.81
2019-02-19T05:51:42.271Z,7.90
2019-02-19T05:52:42.292Z,7.78
2019-02-19T05:53:42.254Z,7.71
2019-02-19T05:54:42.239Z,7.69
2019-02-19T05:55:42.286Z,7.71
2019-02-19T05:56:42.212Z,7.77
2019-02-19T05:57:42.234Z,7.92
2019-02-19T05:58:42.191Z,7.96
2019-02-19T05:59:42.177Z,8.15
2019-02-19T06:00:42.171Z,8.12
2019-02-19T06:01:42.221Z,8.14
2019-02-19T06:02:42.173Z,8.17
2019-02-19T06:03:42.132Z,8.17
2019-02-19T06:04:42.125Z,8.25
2019-02-19T06:05:42.114Z,8.36
2019-02-19T06:06:42.104Z,8.33
2019-02-19T06:07:42.144Z,8.30
2019-02-19T06:08:42.078Z,8.15
2019-02-19T06:09:42.068Z,8.15
2019-02-19T06:10:44.039Z,8.21
2019-02-19T06:11:42.048Z,8.17
2019-02-19T06:12:42.060Z,8.17
2019-02-19T06:13:42.083Z,8.14
2019-02-19T06:14:42.007Z,8.10
2019-02-19T06:15:41.997Z,8.15
2019-02-19T06:16:41.986Z,8.15
2019-02-19T06:17:42.006Z,8.12
2019-02-19T06:18:41.982Z,8.15
2019-02-19T06:19:42.015Z,8.28
2019-02-19T06:20:41.942Z,8.33
2019-02-19T06:21:41.953Z,8.50
2019-02-19T06:22:41.925Z,8.54
2019-02-19T06:23:41.937Z,8.51
2019-02-19T06:24:41.902Z,8.45
2019-02-19T06:25:41.923Z,8.42
2019-02-19T06:26:42.170Z,8.28
2019-02-19T06:27:41.864Z,8.22
2019-02-19T06:28:41.897Z,8.04
2019-02-19T06:29:41.878Z,7.78
2019-02-19T06:30:41.837Z,7.63
2019-02-19T06:31:41.843Z,7.77
2019-02-19T06:32:41.852Z,7.92
2019-02-19T06:33:41.829Z,7.94
2019-02-19T06:34:41.787Z,7.89
2019-02-19T06:35:41.779Z,7.89
2019-02-19T06:36:41.772Z,7.96
2019-02-19T06:37:41.777Z,8.15
2019-02-19T06:38:41.768Z,8.26
2019-02-19T06:39:41.731Z,8.30
2019-02-19T06:40:41.731Z,8.47
2019-02-19T06:41:41.713Z,8.42
2019-02-19T06:42:41.713Z,8.22
2019-02-19T06:43:41.806Z,8.17
2019-02-19T06:44:41.683Z,8.20
2019-02-19T06:45:41.678Z,8.29
2019-02-19T06:46:41.659Z,8.28
2019-02-19T06:47:42.347Z,8.28
2019-02-19T06:48:41.651Z,8.40
2019-02-19T06:49:41.632Z,8.39
2019-02-19T06:50:41.612Z,8.30
2019-02-19T06:51:41.719Z,8.30
2019-02-19T06:52:41.590Z,8.29
2019-02-19T06:53:42.985Z,8.36
2019-02-19T06:54:41.561Z,8.39
2019-02-19T06:55:41.554Z,8.42
2019-02-19T06:56:41.555Z,8.51
2019-02-19T06:57:41.530Z,8.66
2019-02-19T06:58:41.577Z,8.66
2019-02-19T06:59:41.675Z,8.69
2019-02-19T07:00:41.499Z,8.71
2019-02-19T07:01:41.521Z,8.69
2019-02-19T07:02:41.487Z,8.66
2019-02-19T07:03:41.494Z,8.73
2019-02-19T07:04:41.520Z,8.72
2019-02-19T07:05:41.445Z,8.65
2019-02-19T07:06:41.435Z,8.65
2019-02-19T07:07:41.426Z,8.50
2019-02-19T07:08:41.498Z,8.53
2019-02-19T07:09:41.395Z,8.48
2019-02-19T07:10:41.388Z,8.60
2019-02-19T07:11:41.391Z,8.47
2019-02-19T07:12:41.366Z,8.47
2019-02-19T07:13:41.381Z,8.48
2019-02-19T07:14:41.379Z,8.50
2019-02-19T07:15:41.348Z,8.48
2019-02-19T07:16:41.317Z,8.55
2019-02-19T07:17:41.350Z,8.53
2019-02-19T07:18:41.296Z,8.60
2019-02-19T07:19:41.310Z,8.93
2019-02-19T07:20:41.308Z,9.04
2019-02-19T07:21:41.256Z,9.05
2019-02-19T07:22:41.248Z,8.94
2019-02-19T07:23:41.242Z,8.68
2019-02-19T07:24:42.200Z,8.58
2019-02-19T07:25:41.234Z,8.73
2019-02-19T07:26:41.208Z,8.81
2019-02-19T07:27:41.190Z,8.84
2019-02-19T07:28:41.181Z,8.83
2019-02-19T07:29:41.191Z,8.84
2019-02-19T07:30:41.161Z,8.73
2019-02-19T07:31:41.174Z,8.69
2019-02-19T07:32:41.162Z,8.66
2019-02-19T07:33:41.137Z,8.58
2019-02-19T07:34:41.143Z,8.62
2019-02-19T07:35:41.100Z,8.63
2019-02-19T07:36:41.087Z,8.65
2019-02-19T07:37:41.085Z,8.60
2019-02-19T07:38:41.072Z,8.60
2019-02-19T07:39:41.090Z,8.60
2019-02-19T07:40:41.054Z,8.60
2019-02-19T07:41:41.091Z,8.58
2019-02-19T07:42:41.034Z,8.60
2019-02-19T07:43:41.013Z,8.68
2019-02-19T07:44:41.044Z,8.58
2019-02-19T07:45:41.117Z,8.60
2019-02-19T07:46:41.005Z,8.62
2019-02-19T07:47:40.985Z,8.58
2019-02-19T07:48:40.972Z,8.66
2019-02-19T07:49:41.008Z,8.75
2019-02-19T07:50:41.035Z,8.73
2019-02-19T07:51:42.641Z,8.78
2019-02-19T07:52:41.024Z,8.99
2019-02-19T07:53:40.928Z,9.04
2019-02-19T07:54:40.912Z,9.10
2019-02-19T07:55:40.880Z,9.27
2019-02-19T07:56:40.914Z,9.31
2019-02-19T07:57:42.828Z,9.32
2019-02-19T07:58:40.855Z,9.46
2019-02-19T07:59:40.919Z,9.48
2019-02-19T08:00:40.818Z,9.64
2019-02-19T08:01:40.811Z,9.61
2019-02-19T08:02:40.805Z,9.57
2019-02-19T08:03:40.787Z,9.52
2019-02-19T08:04:40.802Z,9.50
2019-02-19T08:05:40.852Z,9.42
2019-02-19T08:06:40.761Z,9.35
2019-02-19T08:07:40.740Z,9.24
2019-02-19T08:08:41.209Z,9.18
2019-02-19T08:09:40.756Z,9.10
2019-02-19T08:10:40.708Z,9.30
2019-02-19T08:11:40.716Z,9.23
2019-02-19T08:12:40.686Z,9.40
2019-02-19T08:13:40.681Z,9.48
2019-02-19T08:14:40.670Z,9.56
2019-02-19T08:15:40.989Z,9.49
2019-02-19T08:16:40.640Z,9.52
2019-02-19T08:17:40.640Z,9.53
2019-02-19T08:18:40.627Z,9.58
2019-02-19T08:19:40.714Z,9.61
2019-02-19T08:20:41.437Z,9.61
2019-02-19T08:21:40.608Z,9.70
2019-02-19T08:22:40.573Z,9.63
2019-02-19T08:23:40.587Z,9.78
2019-02-19T08:24:40.634Z,9.76
2019-02-19T08:25:40.572Z,9.73
2019-02-19T08:26:40.537Z,9.91
2019-02-19T08:27:40.524Z,9.70
2019-02-19T08:28:40.555Z,9.64
2019-02-19T08:29:40.499Z,9.52
2019-02-19T08:30:40.513Z,9.39
2019-02-19T08:31:40.481Z,9.24
2019-02-19T08:32:40.464Z,9.18
2019-02-19T08:33:40.451Z,9.16
2019-02-19T08:34:40.548Z,9.18
2019-02-19T08:35:40.448Z,9.20
2019-02-19T08:36:40.481Z,9.21
2019-02-19T08:42:19.316Z,9.24
2019-02-19T08:44:34.131Z,9.34
2019-02-19T08:45:41.111Z,9.42
2019-02-19T08:46:34.311Z,9.43
2019-02-19T08:47:42.009Z,9.48
2019-02-19T08:48:35.051Z,9.52
2019-02-19T08:49:34.021Z,9.48
2019-02-19T08:50:34.011Z,9.53
2019-02-19T08:51:34.009Z,9.49
2019-02-19T08:52:33.968Z,9.48
2019-02-19T08:53:33.959Z,9.46
2019-02-19T08:54:33.985Z,9.50
2019-02-19T08:55:34.885Z,9.50
2019-02-19T08:56:33.925Z,9.42
2019-02-19T08:57:33.913Z,9.43
2019-02-19T08:58:33.913Z,9.40
2019-02-19T08:59:33.909Z,9.32
2019-02-19T09:00:33.908Z,9.43
2019-02-19T09:01:33.876Z,9.38
2019-02-19T09:02:33.882Z,9.53
2019-02-19T09:03:33.845Z,9.49
2019-02-19T09:04:33.836Z,9.64
2019-02-19T09:05:33.899Z,9.61
2019-02-19T09:06:33.822Z,9.75
2019-02-19T09:07:33.807Z,9.71
2019-02-19T09:08:34.424Z,9.83
2019-02-19T09:09:33.791Z,9.88
2019-02-19T09:10:33.800Z,9.97
2019-02-19T09:11:33.858Z,10.07
2019-02-19T09:12:33.753Z,10.03
2019-02-19T09:13:33.747Z,10.06
2019-02-19T09:14:33.736Z,10.00
2019-02-19T09:15:33.715Z,10.06
2019-02-19T09:16:33.724Z,10.04
2019-02-19T09:17:33.759Z,10.10
2019-02-19T09:18:33.685Z,10.04
2019-02-19T09:19:33.681Z,10.01
2019-02-19T09:20:33.661Z,10.12
2019-02-19T09:21:33.671Z,10.10
2019-02-19T09:22:33.637Z,10.26
2019-02-19T09:23:33.726Z,10.21
